Historique des mesures à Cassis (13260), France
Quotidien Résumé Janvier 23, 2018 Unités:  Métrique/US    US   Métrique
« Précédent (Jour)
Suivant (Jour) »
Quotidien Hebdomadaire Mensuel Annuel Période au choix
  Maximum: Minimum: Moyenne:
Température: 32 °F /  TemperatureC °C 51.6 °F /  10.9 °C 54.9 °F /  12.7 °C
Point de rosée: 32 °F /  DewpointC °C 37.2 °F /  2.9 °C 40.1 °F /  4.5 °C
Humidité: Humidity % 47 % 54 %
Vitesse du vent: WindSpeedKMH mph /  0 km/h - 9.5 mph /  15.3 km/h
Rafales: WindSpeedGustKMH mph /  0 km/h - -
Vent:- - WSW
Pression: 0 in /  PressurehPa hPa 29.9 in /  1013.8 hPa -
Précipitations: 0 in /  0.0 mm    
Historical Graphs
 
 
Mesures pour : Janvier 23, 2018
Heure Temperature Point de rosée Pression Vent Vitesse du vent Rafales Humidité Pluie (par heure) Conditions
32 °F /  TemperatureC °C 32 °F /  DewpointC °C 0 in /  PressurehPa hPa Calm     Humidity % 0 in /  HourlyPrecipMM mm SoftwareType W/m2
00:12 57 °F /  13.9 °C 44.1 °F /  6.7 °C 29.9 in /  1014.1 hPa WNW 14.3 mph /  23 km/h 38.5 mph /  62 km/h 62 % 0 in /  0.0 mm open2300-1.11 W/m2
01:12 56.8 °F /  13.8 °C 44.2 °F /  6.8 °C 30 in /  1014.8 hPa WNW 14.3 mph /  23 km/h 14.3 mph /  23 km/h 63 % 0 in /  0.0 mm open2300-1.11 W/m2
02:12 55.8 °F /  13.2 °C 44.4 °F /  6.9 °C 29.9 in /  1013.8 hPa North 16.6 mph /  26.7 km/h 16.6 mph /  26.7 km/h 66 % 0 in /  0.0 mm open2300-1.11 W/m2
03:12 55.8 °F /  13.2 °C 45 °F /  7.2 °C 29.9 in /  1014.1 hPa NNW 23.0 mph /  37 km/h 23.0 mph /  37 km/h 67 % 0 in /  0.0 mm open2300-1.11 W/m2
05:12 54.3 °F /  12.4 °C 42.8 °F /  6.0 °C 30 in /  1014.8 hPa NW 13.7 mph /  22 km/h 20.1 mph /  32.3 km/h 65 % 0 in /  0.0 mm open2300-1.11 W/m2
07:12 52.5 °F /  11.4 °C 40.6 °F /  4.8 °C 30 in /  1014.4 hPa NW 18.0 mph /  29 km/h 21.9 mph /  35.2 km/h 64 % 0 in /  0.0 mm open2300-1.11 W/m2
08:12 53.2 °F /  11.8 °C 40.5 °F /  4.7 °C 30 in /  1016.1 hPa Calm   12.2 mph /  19.6 km/h 62 % 0 in /  0.0 mm open2300-1.11 W/m2
09:12 53.2 °F /  11.8 °C 40.1 °F /  4.5 °C 30 in /  1016.1 hPa NNW 14.0 mph /  22.5 km/h 15.4 mph /  24.8 km/h 61 % 0 in /  0.0 mm open2300-1.11 W/m2
10:12 54.1 °F /  12.3 °C 39.2 °F /  4.0 °C 30 in /  1015.8 hPa NW 27.7 mph /  44.6 km/h 30.6 mph /  49.2 km/h 57 % 0 in /  0.0 mm open2300-1.11 W/m2
11:12 56.8 °F /  13.8 °C 39.9 °F /  4.4 °C 30 in /  1017.2 hPa NNW 3.2 mph /  5.1 km/h 4.0 mph /  6.4 km/h 53 % 0 in /  0.0 mm open2300-1.11 W/m2
13:12 58.3 °F /  14.6 °C 40.3 °F /  4.6 °C 30 in /  1017.2 hPa NNE 14.8 mph /  23.8 km/h 14.8 mph /  23.8 km/h 51 % 0 in /  0.0 mm open2300-1.11 W/m2
14:12 59.9 °F /  15.5 °C 40.6 °F /  4.8 °C 30.1 in /  1017.5 hPa NW 10.8 mph /  17.4 km/h 17.2 mph /  27.7 km/h 49 % 0 in /  0.0 mm open2300-1.11 W/m2
15:12 60.6 °F /  15.9 °C 40.3 °F /  4.6 °C 30 in /  1017.2 hPa NNW 5.5 mph /  8.9 km/h 8.7 mph /  14 km/h 47 % 0 in /  0.0 mm open2300-1.11 W/m2
16:12 61 °F /  16.1 °C 41.2 °F /  5.1 °C 30.1 in /  1018.2 hPa Calm   3.5 mph /  5.6 km/h 48 % 0 in /  0.0 mm open2300-1.11 W/m2
17:12 59.4 °F /  15.2 °C 39.6 °F /  4.2 °C 30.1 in /  1018.2 hPa WNW 21.2 mph /  34.1 km/h 23.3 mph /  37.5 km/h 48 % 0 in /  0.0 mm open2300-1.11 W/m2
19:12 57 °F /  13.9 °C 38.1 °F /  3.4 °C 30.1 in /  1019.5 hPa NNE 1.4 mph /  2.3 km/h 2.6 mph /  4.2 km/h 49 % 0 in /  0.0 mm open2300-1.11 W/m2
20:12 54.7 °F /  12.6 °C 37.8 °F /  3.2 °C 30.1 in /  1020.5 hPa Calm   8.2 mph /  13.2 km/h 53 % 0 in /  0.0 mm open2300-1.11 W/m2
21:12 54.1 °F /  12.3 °C 38.1 °F /  3.4 °C 30.2 in /  1021.2 hPa Calm     55 % 0 in /  0.0 mm open2300-1.11 W/m2
22:12 52.2 °F /  11.2 °C 37.2 °F /  2.9 °C 30.2 in /  1021.6 hPa Calm     57 % 0 in /  0.0 mm open2300-1.11 W/m2
23:12 51.6 °F /  10.9 °C 37.8 °F /  3.2 °C 30.2 in /  1021.9 hPa Calm     59 % 0 in /  0.0 mm open2300-1.11 W/m2
Observations météo à CASSIS
WU-History script by Weather Underground - 1 mb